Mica, Washington
Current Conditions -  °F | °C
As of 7:53 AM on Friday 28 Nov 2014 (Local Time) from KSFF Reporting Station
Scattered Clouds Scattered Clouds  
Wind Chill: 51°   Ceiling: Unl
Heat Index: 51°   Visibility: 10mi
Dew Point: 42°   Wind: 21mph
Humidity: 71%   Direction: 220°SW
Pressure: 29.53"   Gusts: 31mph
Location:  47.56°N, 117.21°W
Report Text: KSFF 281553Z 22018G27KT 10SM FEW030 SCT110 11/06 A2953 RMK AO2 PK WND 23027/1547 SLP997 T01060056
Loading
Personal Weather Stations






























Interactive Weather Map New forecast layout! Learn more

10-Day Weather Forecast

Advertisements
Track Severe Weather on mobile